Goliah — WDD5908 — position and weather

sailwx.info

Track history (hours):
 
Tides and Currents Weather Stations Pressure Air Temp Water Temp Dewpoint Dewpoint Depression Visibility Wind Speed Wind Dir Waves Ship Positions

Goliah

Owner: Crowley Marine Services, Inc., Seattle, WA. More information available from US FCC via Universal Licensing System and Coast Guard Vessel Documentation Center.

Last reported at 2014-Oct-21 21:33 UTC. Time now 2014-Oct-21 21:37 UTC.
Position N 47°34' W 122°26'.

Length 33 m; draft 4.8 m.

Type: Tug. MMSI: 366898250.

Date/timePositionNaut miles runAvg speedWind from/ knotsBaromVisibWave heightAir tempDewpointWater temp
2014-Oct-21 21:33N 47°34' W 122°26'011.0
2014-Oct-21 21:31N 47°34' W 122°26'1010.4
2014-Oct-21 20:33N 47°24' W 122°22'7 8.6
2014-Oct-21 19:46N 47°19' W 122°27'1 5.3
2014-Oct-21 19:33N 47°18' W 122°26'0 0.0
2014-Oct-21 18:33N 47°18' W 122°26'0 0.0
2014-Oct-21 17:32N 47°18' W 122°26'0 0.0
2014-Oct-21 16:33N 47°18' W 122°26'0 0.0
2014-Oct-21 15:33N 47°18' W 122°26'0 0.0
2014-Oct-21 14:33N 47°18' W 122°26'0 0.0
2014-Oct-21 13:33N 47°18' W 122°26'0 0.0
2014-Oct-21 12:33N 47°18' W 122°26'0 0.0
2014-Oct-21 11:31N 47°18' W 122°26'0 0.0
2014-Oct-21 10:33N 47°18' W 122°26'0 0.0
2014-Oct-21 09:33N 47°18' W 122°26'0 0.0
2014-Oct-21 08:31N 47°18' W 122°26'0 0.0
2014-Oct-21 07:33N 47°18' W 122°26'0 0.0
2014-Oct-21 06:33N 47°18' W 122°26'0 0.0
2014-Oct-21 05:33N 47°18' W 122°26'0 0.0
2014-Oct-21 04:28N 47°18' W 122°26'0 0.0
2014-Oct-21 03:31N 47°18' W 122°26'1 1.2
2014-Oct-21 02:33N 47°17' W 122°25'1 1.2
2014-Oct-21 01:33N 47°16' W 122°24'0 0.1
2014-Oct-21 00:33N 47°16' W 122°23'0 0.2
2014-Oct-20 23:33N 47°16' W 122°23'3 2.7
2014-Oct-20 22:33N 47°18' W 122°26'1 0.8
2014-Oct-20 21:33N 47°18' W 122°27'8 8.6
2014-Oct-20 20:39N 47°25' W 122°23'1 9.8
2014-Oct-20 20:33N 47°26' W 122°23'7 9.7
2014-Oct-20 19:49N 47°34' W 122°25'2 8.6
2014-Oct-20 19:33N 47°36' W 122°24'1 9.4
2014-Oct-20 19:29N 47°36' W 122°23'2 1.8
2014-Oct-20 18:33N 47°35' W 122°21'0 0.0
2014-Oct-20 18:29N 47°35' W 122°21'0 0.0
2014-Oct-20 17:33N 47°35' W 122°21'0 0.3
2014-Oct-20 16:33N 47°36' W 122°21'1 0.5
2014-Oct-20 15:33N 47°35' W 122°21'3 2.7
2014-Oct-20 14:33N 47°36' W 122°25'9 8.6
2014-Oct-20 13:33N 47°27' W 122°23'8 8.1
2014-Oct-20 12:33N 47°19' W 122°26'4 4.2
2014-Oct-20 11:30N 47°15' W 122°23'3 2.7
2014-Oct-20 10:33N 47°17' W 122°26'4 3.9
2014-Oct-20 09:33N 47°21' W 122°26'8 8.0
2014-Oct-20 08:33N 47°29' W 122°24'7 6.5
2014-Oct-20 07:29N 47°36' W 122°21'0 0.3
2014-Oct-20 06:43N 47°35' W 122°21'0 0.0
2014-Oct-20 06:31N 47°35' W 122°21'0 0.1
2014-Oct-20 06:28N 47°35' W 122°21'0 0.0
2014-Oct-20 05:58N 47°35' W 122°21'0 0.0
2014-Oct-20 05:33N 47°35' W 122°21'0 0.0
2014-Oct-20 04:33N 47°35' W 122°21'0 0.0
2014-Oct-20 04:33N 47°35' W 122°21'0 0.0
2014-Oct-20 03:33N 47°35' W 122°21'0 0.0
2014-Oct-20 03:33N 47°35' W 122°21'0 0.0
2014-Oct-20 02:33N 47°35' W 122°21'0 0.0
2014-Oct-20 02:33N 47°35' W 122°21'0 0.0
2014-Oct-20 01:33N 47°35' W 122°21'0 0.0
2014-Oct-20 01:33N 47°35' W 122°21'0 0.0
2014-Oct-20 00:33N 47°35' W 122°21'0 0.9
2014-Oct-20 00:33N 47°35' W 122°21'0 0.0
2014-Oct-19 23:33N 47°35' W 122°21'0 0.0
2014-Oct-19 23:33N 47°35' W 122°21'0 0.4
2014-Oct-19 22:33N 47°35' W 122°21'0 0.0
2014-Oct-19 22:33N 47°35' W 122°21'2 1.8
2014-Oct-19 21:33N 47°37' W 122°21'0 0.3
2014-Oct-19 21:32N 47°37' W 122°21'1 1.4
2014-Oct-19 20:33N 47°35' W 122°21'0 0.4
2014-Oct-19 20:33N 47°35' W 122°21'0 0.0
2014-Oct-19 19:33N 47°35' W 122°21'0 0.0
2014-Oct-19 19:30N 47°35' W 122°21'0 0.0
2014-Oct-19 18:33N 47°35' W 122°21'0 0.0
2014-Oct-19 18:29N 47°35' W 122°21'0 0.0
2014-Oct-19 17:27N 47°35' W 122°21'0 0.0
2014-Oct-19 17:18N 47°35' W 122°21'0 0.0
2014-Oct-19 16:32N 47°35' W 122°21'0 0.0
2014-Oct-19 16:31N 47°35' W 122°21'0 0.0
2014-Oct-19 15:33N 47°35' W 122°21'0 0.2
2014-Oct-19 15:31N 47°35' W 122°21'0 0.0
2014-Oct-19 14:33N 47°35' W 122°21'0 0.0
2014-Oct-19 14:31N 47°35' W 122°21'0 0.2
2014-Oct-19 13:33N 47°35' W 122°21'0 0.0
2014-Oct-19 13:31N 47°35' W 122°21'0 0.1
2014-Oct-19 12:33N 47°35' W 122°21'0 1.2
2014-Oct-19 12:31N 47°36' W 122°21'1 1.1
2014-Oct-19 11:33N 47°36' W 122°22'0 0.2
2014-Oct-19 11:31N 47°36' W 122°22'1 1.0
2014-Oct-19 10:33N 47°35' W 122°21'0 0.1
2014-Oct-19 10:31N 47°35' W 122°21'1 0.8
2014-Oct-19 09:33N 47°35' W 122°21'0 0.1
2014-Oct-19 09:31N 47°35' W 122°21'0 0.2
2014-Oct-19 08:33N 47°35' W 122°21'0 0.1
2014-Oct-19 08:31N 47°35' W 122°21'0 0.0
2014-Oct-19 07:33N 47°35' W 122°21'0 0.0
2014-Oct-19 07:31N 47°35' W 122°21'0 0.0
2014-Oct-19 06:33N 47°35' W 122°21'0 0.0
2014-Oct-19 06:30N 47°35' W 122°21'0 0.0
2014-Oct-19 06:00N 47°35' W 122°21'0 0.0
2014-Oct-19 05:33N 47°35' W 122°21'0 0.0
2014-Oct-19 04:33N 47°35' W 122°21'0 0.0
2014-Oct-19 04:25N 47°35' W 122°21'0 0.0
2014-Oct-19 03:33N 47°35' W 122°21'0 0.1
2014-Oct-19 03:30N 47°35' W 122°21'0 0.0
2014-Oct-19 02:33N 47°35' W 122°21'0 0.0
2014-Oct-19 02:24N 47°35' W 122°21'0 0.0
2014-Oct-19 01:33N 47°35' W 122°21'0 0.0
2014-Oct-19 01:30N 47°35' W 122°21'0 0.0
2014-Oct-19 00:33N 47°35' W 122°21'0 0.0
2014-Oct-19 00:24N 47°35' W 122°21'0 0.0
2014-Oct-18 23:33N 47°35' W 122°21'0 0.0
2014-Oct-18 23:30N 47°35' W 122°21'1 1.0
2014-Oct-18 22:33N 47°36' W 122°21'0 0.9
2014-Oct-18 22:30N 47°36' W 122°21'0 0.5
2014-Oct-18 21:33N 47°35' W 122°21'0 0.0
2014-Oct-18 21:29N 47°35' W 122°21'0 0.0
2014-Oct-18 20:33N 47°35' W 122°21'0 0.1
2014-Oct-18 20:29N 47°35' W 122°21'0 0.0
2014-Oct-18 19:33N 47°35' W 122°21'0 0.0
2014-Oct-18 19:29N 47°35' W 122°21'0 0.0
2014-Oct-18 18:33N 47°35' W 122°21'0 0.1
2014-Oct-18 18:28N 47°35' W 122°21'0 0.0
2014-Oct-18 17:33N 47°35' W 122°21'0 0.1
2014-Oct-18 17:28N 47°35' W 122°21'0 0.4
2014-Oct-18 16:33N 47°36' W 122°21'0 1.8
2014-Oct-18 16:28N 47°36' W 122°21'1 0.9
2014-Oct-18 15:33N 47°35' W 122°21'0 0.5
2014-Oct-18 15:29N 47°35' W 122°21'1 0.6
2014-Oct-18 14:33N 47°35' W 122°21'0 0.0
2014-Oct-18 14:29N 47°35' W 122°21'0 0.0
2014-Oct-18 13:33N 47°35' W 122°21'0 0.0
2014-Oct-18 13:33N 47°35' W 122°21'0 0.0
2014-Oct-18 12:33N 47°35' W 122°21'0 0.0
2014-Oct-18 12:33N 47°35' W 122°21'0 0.0
2014-Oct-18 11:33N 47°35' W 122°21'0 0.0
2014-Oct-18 11:33N 47°35' W 122°21'0 0.0
2014-Oct-18 10:33N 47°35' W 122°21'0 0.0
2014-Oct-18 10:23N 47°35' W 122°21'0 0.0
2014-Oct-18 09:33N 47°35' W 122°21'0 0.0
2014-Oct-18 09:33N 47°35' W 122°21'0 0.0
2014-Oct-18 08:33N 47°35' W 122°21'0 0.0
2014-Oct-18 08:32N 47°35' W 122°21'0 0.0
2014-Oct-18 07:33N 47°35' W 122°21'0 0.3
2014-Oct-18 07:32N 47°35' W 122°21'0 0.3
2014-Oct-18 06:33N 47°35' W 122°21'0 2.7
2014-Oct-18 06:31N 47°35' W 122°21'1 2.2
2014-Oct-18 05:57N 47°36' W 122°22'1 1.6
2014-Oct-18 05:33N 47°36' W 122°21'0 0.4
2014-Oct-18 04:33N 47°35' W 122°21'0 0.0
2014-Oct-18 04:32N 47°35' W 122°21'0 0.0
2014-Oct-18 03:33N 47°35' W 122°21'0 0.0
2014-Oct-18 03:32N 47°35' W 122°21'0 0.0
2014-Oct-18 02:33N 47°35' W 122°21'0 0.3
2014-Oct-18 02:32N 47°35' W 122°21'0 0.0
2014-Oct-18 01:33N 47°35' W 122°21'0 0.0
2014-Oct-18 01:32N 47°35' W 122°21'0 0.0
2014-Oct-18 00:33N 47°35' W 122°21'0 0.0
2014-Oct-18 00:32N 47°35' W 122°21'0 0.0
2014-Oct-17 23:33N 47°35' W 122°21'0 0.0
2014-Oct-17 23:32N 47°35' W 122°21'0 0.0
2014-Oct-17 22:33N 47°35' W 122°21'0 0.0
2014-Oct-17 22:32N 47°35' W 122°21'0 0.0
2014-Oct-17 21:33N 47°35' W 122°21'0 0.2
2014-Oct-17 21:31N 47°35' W 122°21'0 0.0
2014-Oct-17 20:33N 47°35' W 122°21'0 0.0
2014-Oct-17 20:31N 47°35' W 122°21'0 0.0
2014-Oct-17 19:33N 47°35' W 122°21'0 0.1
2014-Oct-17 19:31N 47°35' W 122°21'0 0.0
2014-Oct-17 18:33N 47°35' W 122°21'0 0.1
2014-Oct-17 18:31N 47°35' W 122°21'5 5.6
2014-Oct-17 17:33N 47°31' W 122°25'0 8.2
2014-Oct-17 17:31N 47°30' W 122°25'8 8.7
2014-Oct-17 16:33N 47°22' W 122°21'1 8.7
2014-Oct-17 16:25N 47°22' W 122°23'5 6.1
2014-Oct-17 15:33N 47°16' W 122°24'1 0.5
2014-Oct-17 14:34N 47°16' W 122°24'0 0.3
2014-Oct-17 13:33N 47°16' W 122°23'1 1.3
2014-Oct-17 12:33N 47°17' W 122°25'1 1.5
2014-Oct-17 11:33N 47°16' W 122°23'0 0.2
2014-Oct-17 10:33N 47°16' W 122°23'3 3.2
2014-Oct-17 09:33N 47°18' W 122°27'1110.7
2014-Oct-17 08:33N 47°28' W 122°24'7 6.0
2014-Oct-17 07:20N 47°35' W 122°21'0 0.0
2014-Oct-17 07:02N 47°35' W 122°21'0 0.0
2014-Oct-17 06:33N 47°35' W 122°21'0 0.4
2014-Oct-17 06:32N 47°35' W 122°21'0 0.0
2014-Oct-17 05:32N 47°35' W 122°21'0 0.0
2014-Oct-17 04:33N 47°35' W 122°21'0 0.0
2014-Oct-17 04:29N 47°35' W 122°21'0 0.0
2014-Oct-17 03:33N 47°35' W 122°21'0 0.1
2014-Oct-17 03:29N 47°35' W 122°21'0 0.0
2014-Oct-17 02:33N 47°35' W 122°21'0 0.0
2014-Oct-17 02:29N 47°35' W 122°21'0 0.0
2014-Oct-17 01:33N 47°35' W 122°21'0 0.0
2014-Oct-17 01:29N 47°35' W 122°21'0 0.0
2014-Oct-17 00:33N 47°35' W 122°21'0 0.1
2014-Oct-17 00:29N 47°35' W 122°21'0 0.0
2014-Oct-16 23:33N 47°35' W 122°21'0 0.0
2014-Oct-16 23:29N 47°35' W 122°21'0 0.0
2014-Oct-16 22:33N 47°35' W 122°21'0 0.1
2014-Oct-16 22:28N 47°35' W 122°21'0 0.0
2014-Oct-16 21:33N 47°35' W 122°21'0 0.0
2014-Oct-16 21:33N 47°35' W 122°21'0 0.0
2014-Oct-16 20:33N 47°35' W 122°21'0 0.0
2014-Oct-16 20:33N 47°35' W 122°21'0 0.0
2014-Oct-16 19:33N 47°35' W 122°21'0 0.0
2014-Oct-16 19:33N 47°35' W 122°21'0 0.0
2014-Oct-16 18:33N 47°35' W 122°21'0 0.0
2014-Oct-16 18:33N 47°35' W 122°21'0 0.0
2014-Oct-16 17:33N 47°35' W 122°21'0 0.0
2014-Oct-16 17:33N 47°35' W 122°21'0 0.0
2014-Oct-16 16:33N 47°35' W 122°21'0 0.0
2014-Oct-16 16:33N 47°35' W 122°21'0 0.0
2014-Oct-16 15:33N 47°35' W 122°21'0 0.6
2014-Oct-16 15:33N 47°35' W 122°21'0 0.0
2014-Oct-16 14:33N 47°35' W 122°21'0 0.0
2014-Oct-16 14:33N 47°35' W 122°21'0 0.0
2014-Oct-16 13:33N 47°35' W 122°21'0 0.0
2014-Oct-16 13:33N 47°35' W 122°21'0 0.0
2014-Oct-16 12:33N 47°35' W 122°21'0 0.0
2014-Oct-16 12:33N 47°35' W 122°21'1 0.6
2014-Oct-16 11:33N 47°35' W 122°21'0 0.1
2014-Oct-16 11:28N 47°35' W 122°21'0 0.0
2014-Oct-16 10:33N 47°35' W 122°21'0 0.0
2014-Oct-16 10:13N 47°35' W 122°21'0 0.0
2014-Oct-16 09:33N 47°35' W 122°21'0 0.0
2014-Oct-16 09:32N 47°35' W 122°21'0 0.0
2014-Oct-16 08:32N 47°35' W 122°21'0 0.0
2014-Oct-16 08:32N 47°35' W 122°21'0 0.0
2014-Oct-16 07:33N 47°35' W 122°21'0 0.3
2014-Oct-16 07:32N 47°35' W 122°21'0 0.4
2014-Oct-16 06:33N 47°35' W 122°21'0 0.0
2014-Oct-16 06:32N 47°35' W 122°21'2 2.6
2014-Oct-16 05:42N 47°37' W 122°22'0 3.0
2014-Oct-16 05:33N 47°37' W 122°22'2 1.5
2014-Oct-16 04:33N 47°35' W 122°21'0 0.3
2014-Oct-16 04:32N 47°35' W 122°21'0 0.0
2014-Oct-16 03:33N 47°35' W 122°21'0 0.0
2014-Oct-16 03:32N 47°35' W 122°21'0 0.0
2014-Oct-16 02:33N 47°35' W 122°21'0 0.0
2014-Oct-16 02:32N 47°35' W 122°21'0 0.0
2014-Oct-16 01:33N 47°35' W 122°21'0 0.0
2014-Oct-16 01:31N 47°35' W 122°21'0 0.0
2014-Oct-16 00:33N 47°35' W 122°21'0 0.0
2014-Oct-16 00:26N 47°35' W 122°21'1 0.7
2014-Oct-15 23:33N 47°35' W 122°21'0 0.2
2014-Oct-15 23:31N 47°35' W 122°21'1 0.6
2014-Oct-15 22:33N 47°35' W 122°21'0 0.0
2014-Oct-15 22:31N 47°35' W 122°21'0 0.0
2014-Oct-15 21:33N 47°35' W 122°21'0 0.2
2014-Oct-15 21:31N 47°35' W 122°21'0 0.0
2014-Oct-15 20:33N 47°35' W 122°21'0 0.0
2014-Oct-15 20:31N 47°35' W 122°21'0 0.1
2014-Oct-15 19:33N 47°35' W 122°21'0 1.9
2014-Oct-15 19:31N 47°35' W 122°21'0 0.0
2014-Oct-15 18:33N 47°35' W 122°21'0 0.2
2014-Oct-15 18:31N 47°35' W 122°21'0 0.0
2014-Oct-15 17:33N 47°35' W 122°21'0 0.0
2014-Oct-15 17:31N 47°35' W 122°21'0 0.0
2014-Oct-15 16:33N 47°35' W 122°21'0 0.1
2014-Oct-15 16:26N 47°35' W 122°21'0 0.0
2014-Oct-15 15:33N 47°35' W 122°21'0 0.0
2014-Oct-15 15:30N 47°35' W 122°21'0 0.0
2014-Oct-15 14:33N 47°35' W 122°21'0 0.0
2014-Oct-15 14:25N 47°35' W 122°21'0 0.0
2014-Oct-15 13:33N 47°35' W 122°21'0 0.1
2014-Oct-15 13:30N 47°35' W 122°21'0 0.2
2014-Oct-15 12:33N 47°35' W 122°21'0 3.0
2014-Oct-15 12:30N 47°35' W 122°21'1 0.9
2014-Oct-15 11:33N 47°36' W 122°22'0 3.3
2014-Oct-15 11:30N 47°36' W 122°21'1 0.6
2014-Oct-15 10:33N 47°35' W 122°21'0 0.1
2014-Oct-15 10:29N 47°35' W 122°21'0 0.0
2014-Oct-15 09:33N 47°35' W 122°21'0 0.0
2014-Oct-15 09:32N 47°35' W 122°21'0 0.0
2014-Oct-15 08:33N 47°35' W 122°21'0 0.0
2014-Oct-15 07:59N 47°35' W 122°21'0 0.0
2014-Oct-15 07:33N 47°35' W 122°21'0 0.1
2014-Oct-15 07:29N 47°35' W 122°21'0 0.0
2014-Oct-15 06:34N 47°35' W 122°21'0 0.0
2014-Oct-15 06:33N 47°35' W 122°21'0 0.0
2014-Oct-15 05:59N 47°35' W 122°21'0 0.0
2014-Oct-15 05:33N 47°35' W 122°21'2 2.3
2014-Oct-15 04:33N 47°36' W 122°24'8 8.4
2014-Oct-15 03:33N 47°27' W 122°24'7 7.5
2014-Oct-15 02:33N 47°20' W 122°25'5 4.7
2014-Oct-15 01:33N 47°16' W 122°23'0 0.1
2014-Oct-15 00:33N 47°16' W 122°23'2 1.5
2014-Oct-14 23:33N 47°16' W 122°25'1 0.8
2014-Oct-14 22:33N 47°17' W 122°25'0 0.4
2014-Oct-14 21:33N 47°17' W 122°25'1 0.8
2014-Oct-14 20:33N 47°16' W 122°24'4 4.4
2014-Oct-14 19:33N 47°20' W 122°26'1110.6
2014-Oct-14 18:33N 47°31' W 122°24'411.4
2014-Oct-14 18:12N 47°35' W 122°25'3 4.6
2014-Oct-14 17:31N 47°35' W 122°21'0 0.0
2014-Oct-14 16:30N 47°35' W 122°21'0 0.0
2014-Oct-14 15:33N 47°35' W 122°21'0 0.0
2014-Oct-14 14:33N 47°35' W 122°21'0 0.0
2014-Oct-14 14:09N 47°35' W 122°21'0 0.0
2014-Oct-14 13:33N 47°35' W 122°21'0 0.0
2014-Oct-14 13:29N 47°35' W 122°21'0 0.0
2014-Oct-14 12:33N 47°35' W 122°21'0 0.0
2014-Oct-14 12:29N 47°35' W 122°21'0 0.0
2014-Oct-14 11:33N 47°35' W 122°21'0 0.0
2014-Oct-14 11:29N 47°35' W 122°21'0 0.0
2014-Oct-14 10:33N 47°35' W 122°21'0 0.0
2014-Oct-14 10:29N 47°35' W 122°21'0 0.0
2014-Oct-14 09:33N 47°35' W 122°21'0 0.0
2014-Oct-14 09:29N 47°35' W 122°21'0 0.0
2014-Oct-14 08:33N 47°35' W 122°21'0 0.0
2014-Oct-14 08:29N 47°35' W 122°21'0 0.0
2014-Oct-14 07:33N 47°35' W 122°21'0 0.0
2014-Oct-14 07:29N 47°35' W 122°21'0 0.0
2014-Oct-14 06:33N 47°35' W 122°21'0 0.0
2014-Oct-14 06:29N 47°35' W 122°21'0 0.0
2014-Oct-14 06:03N 47°35' W 122°21'0 0.0
2014-Oct-14 05:33N 47°35' W 122°21'0 0.0
2014-Oct-14 04:33N 47°35' W 122°21'0 0.0
2014-Oct-14 04:28N 47°35' W 122°21'0 0.0
2014-Oct-14 03:33N 47°35' W 122°21'0 0.0
2014-Oct-14 03:33N 47°35' W 122°21'0 0.0
2014-Oct-14 02:33N 47°35' W 122°21'0 0.0
2014-Oct-14 02:33N 47°35' W 122°21'0 0.0
2014-Oct-14 01:33N 47°35' W 122°21'0 0.0
2014-Oct-14 01:33N 47°35' W 122°21'0 0.0
2014-Oct-14 00:33N 47°35' W 122°21'0 0.0
2014-Oct-14 00:33N 47°35' W 122°21'0 0.0
2014-Oct-13 23:33N 47°35' W 122°21'0 0.0
2014-Oct-13 23:33N 47°35' W 122°21'0 0.0
2014-Oct-13 22:33N 47°35' W 122°21'0 0.0
2014-Oct-13 22:21N 47°35' W 122°21'0 0.0
2014-Oct-13 21:33N 47°35' W 122°21'0 0.0
2014-Oct-13 21:31N 47°35' W 122°21'0 0.0
2014-Oct-13 20:32N 47°35' W 122°21'0 0.0
2014-Oct-13 20:31N 47°35' W 122°21'0 0.0
2014-Oct-13 19:33N 47°35' W 122°21'0 0.0
2014-Oct-13 19:31N 47°35' W 122°21'0 0.0
2014-Oct-13 18:33N 47°35' W 122°21'0 0.0
2014-Oct-13 18:30N 47°35' W 122°21'0 0.0
2014-Oct-13 17:33N 47°35' W 122°21'0 0.0
2014-Oct-13 17:14N 47°35' W 122°21'0 0.0
2014-Oct-13 16:33N 47°35' W 122°21'0 0.0
2014-Oct-13 16:30N 47°35' W 122°21'0 0.0
2014-Oct-13 15:33N 47°35' W 122°21'0 0.0
2014-Oct-13 15:14N 47°35' W 122°21'0 0.0
2014-Oct-13 14:33N 47°35' W 122°21'0 0.1
2014-Oct-13 14:29N 47°35' W 122°21'0 0.0
2014-Oct-13 13:33N 47°35' W 122°21'0 0.1
2014-Oct-13 13:29N 47°35' W 122°21'0 0.0
2014-Oct-13 12:33N 47°35' W 122°21'0 0.0
2014-Oct-13 12:29N 47°35' W 122°21'0 0.0
2014-Oct-13 11:33N 47°35' W 122°21'0 0.0
2014-Oct-13 11:29N 47°35' W 122°21'0 0.0
2014-Oct-13 10:33N 47°35' W 122°21'0 0.0
2014-Oct-13 10:24N 47°35' W 122°21'0 0.0
2014-Oct-13 09:32N 47°35' W 122°21'0 0.0
2014-Oct-13 08:32N 47°35' W 122°21'0 0.0
2014-Oct-13 07:33N 47°35' W 122°21'0 0.0
2014-Oct-13 06:59N 47°35' W 122°21'0 0.0
2014-Oct-13 06:33N 47°35' W 122°21'0 0.0
2014-Oct-13 06:29N 47°35' W 122°21'0 0.0
2014-Oct-13 05:59N 47°35' W 122°21'0 0.0
2014-Oct-13 05:33N 47°35' W 122°21'0 0.0
2014-Oct-13 04:32N 47°35' W 122°21'0 0.1
2014-Oct-13 04:28N 47°35' W 122°21'0 0.0
2014-Oct-13 03:34N 47°35' W 122°21'0 0.0
2014-Oct-13 03:33N 47°35' W 122°21'0 0.0
2014-Oct-13 02:33N 47°35' W 122°21'0 0.0
2014-Oct-13 02:01N 47°35' W 122°21'0 0.0
2014-Oct-13 01:33N 47°35' W 122°21'0 0.0
2014-Oct-13 01:31N 47°35' W 122°21'0 0.0
2014-Oct-13 00:33N 47°35' W 122°21'0 0.0
2014-Oct-13 00:31N 47°35' W 122°21'0 0.0
2014-Oct-12 23:33N 47°35' W 122°21'0 0.0
2014-Oct-12 23:31N 47°35' W 122°21'0 0.0
2014-Oct-12 22:33N 47°35' W 122°21'0 0.1
2014-Oct-12 22:30N 47°35' W 122°21'0 0.0
2014-Oct-12 21:33N 47°35' W 122°21'0 0.0
2014-Oct-12 20:58N 47°35' W 122°21'0 0.0
2014-Oct-12 20:33N 47°35' W 122°21'0 0.0
2014-Oct-12 20:28N 47°35' W 122°21'0 0.0
2014-Oct-12 19:32N 47°35' W 122°21'0 0.0
2014-Oct-12 19:27N 47°35' W 122°21'0 0.0
2014-Oct-12 18:33N 47°35' W 122°21'0 0.0
2014-Oct-12 18:33N 47°35' W 122°21'0 0.0
2014-Oct-12 17:33N 47°35' W 122°21'0 0.0
2014-Oct-12 17:33N 47°35' W 122°21'0 0.0
2014-Oct-12 16:33N 47°35' W 122°21'0 0.0
2014-Oct-12 16:33N 47°35' W 122°21'0 0.0
2014-Oct-12 15:33N 47°35' W 122°21'0 0.0
2014-Oct-12 15:32N 47°35' W 122°21'0 0.2
2014-Oct-12 14:33N 47°36' W 122°21'0 0.7
2014-Oct-12 14:32N 47°36' W 122°21'0 0.2
2014-Oct-12 13:33N 47°35' W 122°21'0 0.0
2014-Oct-12 13:32N 47°35' W 122°21'0 0.0
2014-Oct-12 12:33N 47°35' W 122°21'0 0.3
2014-Oct-12 12:32N 47°35' W 122°21'0 0.0
2014-Oct-12 11:33N 47°35' W 122°21'0 0.0
2014-Oct-12 11:32N 47°35' W 122°21'0 0.0
2014-Oct-12 10:32N 47°35' W 122°21'0 0.0
2014-Oct-12 09:31N 47°35' W 122°21'0 0.0
2014-Oct-12 09:25N 47°35' W 122°21'0 0.0
2014-Oct-12 08:33N 47°35' W 122°21'0 0.0
2014-Oct-12 08:30N 47°35' W 122°21'0 0.0
2014-Oct-12 07:33N 47°35' W 122°21'0 0.0
2014-Oct-12 07:29N 47°35' W 122°21'0 0.0
2014-Oct-12 06:33N 47°35' W 122°21'0 0.0
2014-Oct-12 06:29N 47°35' W 122°21'0 0.0
2014-Oct-12 05:59N 47°35' W 122°21'0 0.0
2014-Oct-12 05:33N 47°35' W 122°21'0 0.0
2014-Oct-12 04:33N 47°35' W 122°21'0 0.0
2014-Oct-12 04:29N 47°35' W 122°21'0 0.0
2014-Oct-12 03:33N 47°35' W 122°21'0 0.0
2014-Oct-12 03:29N 47°35' W 122°21'0 0.0
2014-Oct-12 02:33N 47°35' W 122°21'0 0.1
2014-Oct-12 02:29N 47°35' W 122°21'0 0.0
2014-Oct-12 01:33N 47°35' W 122°21'0 0.5
2014-Oct-12 00:33N 47°35' W 122°21'0 0.6
2014-Oct-11 23:45N 47°35' W 122°21'0 0.0
2014-Oct-11 23:33N 47°35' W 122°21'0 0.0
2014-Oct-11 23:30N 47°35' W 122°21'0 0.0
2014-Oct-11 22:33N 47°35' W 122°21'0 0.1
2014-Oct-11 22:30N 47°35' W 122°21'0 0.0
2014-Oct-11 21:33N 47°35' W 122°21'  
Track history (hours):
 
Tides and Currents Weather Stations Pressure Air Temp Water Temp Dewpoint Dewpoint Depression Visibility Wind Speed Wind Dir Waves Ship Positions

Goliah

Owner: Crowley Marine Services, Inc., Seattle, WA. More information available from US FCC via Universal Licensing System and Coast Guard Vessel Documentation Center.

Last reported at 2014-Oct-21 21:33 UTC. Time now 2014-Oct-21 21:37 UTC.
Position N 47°34' W 122°26'.

Length 33 m; draft 4.8 m.

Type: Tug. MMSI: 366898250.

Date/timePositionNaut miles runAvg speedWind from/ knotsBaromVisibWave heightAir tempDewpointWater temp
2014-Oct-21 21:33N 47°34' W 122°26'011.0
2014-Oct-21 21:31N 47°34' W 122°26'1010.4
2014-Oct-21 20:33N 47°24' W 122°22'7 8.6
2014-Oct-21 19:46N 47°19' W 122°27'1 5.3
2014-Oct-21 19:33N 47°18' W 122°26'0 0.0
2014-Oct-21 18:33N 47°18' W 122°26'0 0.0
2014-Oct-21 17:32N 47°18' W 122°26'0 0.0
2014-Oct-21 16:33N 47°18' W 122°26'0 0.0
2014-Oct-21 15:33N 47°18' W 122°26'0 0.0
2014-Oct-21 14:33N 47°18' W 122°26'0 0.0
2014-Oct-21 13:33N 47°18' W 122°26'0 0.0
2014-Oct-21 12:33N 47°18' W 122°26'0 0.0
2014-Oct-21 11:31N 47°18' W 122°26'0 0.0
2014-Oct-21 10:33N 47°18' W 122°26'0 0.0
2014-Oct-21 09:33N 47°18' W 122°26'0 0.0
2014-Oct-21 08:31N 47°18' W 122°26'0 0.0
2014-Oct-21 07:33N 47°18' W 122°26'0 0.0
2014-Oct-21 06:33N 47°18' W 122°26'0 0.0
2014-Oct-21 05:33N 47°18' W 122°26'0 0.0
2014-Oct-21 04:28N 47°18' W 122°26'0 0.0
2014-Oct-21 03:31N 47°18' W 122°26'1 1.2
2014-Oct-21 02:33N 47°17' W 122°25'1 1.2
2014-Oct-21 01:33N 47°16' W 122°24'0 0.1
2014-Oct-21 00:33N 47°16' W 122°23'0 0.2
2014-Oct-20 23:33N 47°16' W 122°23'3 2.7
2014-Oct-20 22:33N 47°18' W 122°26'1 0.8
2014-Oct-20 21:33N 47°18' W 122°27'8 8.6
2014-Oct-20 20:39N 47°25' W 122°23'1 9.8
2014-Oct-20 20:33N 47°26' W 122°23'7 9.7
2014-Oct-20 19:49N 47°34' W 122°25'2 8.6
2014-Oct-20 19:33N 47°36' W 122°24'1 9.4
2014-Oct-20 19:29N 47°36' W 122°23'2 1.8
2014-Oct-20 18:33N 47°35' W 122°21'0 0.0
2014-Oct-20 18:29N 47°35' W 122°21'0 0.0
2014-Oct-20 17:33N 47°35' W 122°21'0 0.3
2014-Oct-20 16:33N 47°36' W 122°21'1 0.5
2014-Oct-20 15:33N 47°35' W 122°21'3 2.7
2014-Oct-20 14:33N 47°36' W 122°25'9 8.6
2014-Oct-20 13:33N 47°27' W 122°23'8 8.1
2014-Oct-20 12:33N 47°19' W 122°26'4 4.2
2014-Oct-20 11:30N 47°15' W 122°23'3 2.7
2014-Oct-20 10:33N 47°17' W 122°26'4 3.9
2014-Oct-20 09:33N 47°21' W 122°26'8 8.0
2014-Oct-20 08:33N 47°29' W 122°24'7 6.5
2014-Oct-20 07:29N 47°36' W 122°21'0 0.3
2014-Oct-20 06:43N 47°35' W 122°21'0 0.0
2014-Oct-20 06:31N 47°35' W 122°21'0 0.1
2014-Oct-20 06:28N 47°35' W 122°21'0 0.0
2014-Oct-20 05:58N 47°35' W 122°21'0 0.0
2014-Oct-20 05:33N 47°35' W 122°21'0 0.0
2014-Oct-20 04:33N 47°35' W 122°21'0 0.0
2014-Oct-20 04:33N 47°35' W 122°21'0 0.0
2014-Oct-20 03:33N 47°35' W 122°21'0 0.0
2014-Oct-20 03:33N 47°35' W 122°21'0 0.0
2014-Oct-20 02:33N 47°35' W 122°21'0 0.0
2014-Oct-20 02:33N 47°35' W 122°21'0 0.0
2014-Oct-20 01:33N 47°35' W 122°21'0 0.0
2014-Oct-20 01:33N 47°35' W 122°21'0 0.0
2014-Oct-20 00:33N 47°35' W 122°21'0 0.9
2014-Oct-20 00:33N 47°35' W 122°21'0 0.0
2014-Oct-19 23:33N 47°35' W 122°21'0 0.0
2014-Oct-19 23:33N 47°35' W 122°21'0 0.4
2014-Oct-19 22:33N 47°35' W 122°21'0 0.0
2014-Oct-19 22:33N 47°35' W 122°21'2 1.8
2014-Oct-19 21:33N 47°37' W 122°21'0 0.3
2014-Oct-19 21:32N 47°37' W 122°21'1 1.4
2014-Oct-19 20:33N 47°35' W 122°21'0 0.4
2014-Oct-19 20:33N 47°35' W 122°21'0 0.0
2014-Oct-19 19:33N 47°35' W 122°21'0 0.0
2014-Oct-19 19:30N 47°35' W 122°21'0 0.0
2014-Oct-19 18:33N 47°35' W 122°21'0 0.0
2014-Oct-19 18:29N 47°35' W 122°21'0 0.0
2014-Oct-19 17:27N 47°35' W 122°21'0 0.0
2014-Oct-19 17:18N 47°35' W 122°21'0 0.0
2014-Oct-19 16:32N 47°35' W 122°21'0 0.0
2014-Oct-19 16:31N 47°35' W 122°21'0 0.0
2014-Oct-19 15:33N 47°35' W 122°21'0 0.2
2014-Oct-19 15:31N 47°35' W 122°21'0 0.0
2014-Oct-19 14:33N 47°35' W 122°21'0 0.0
2014-Oct-19 14:31N 47°35' W 122°21'0 0.2
2014-Oct-19 13:33N 47°35' W 122°21'0 0.0
2014-Oct-19 13:31N 47°35' W 122°21'0 0.1
2014-Oct-19 12:33N 47°35' W 122°21'0 1.2
2014-Oct-19 12:31N 47°36' W 122°21'1 1.1
2014-Oct-19 11:33N 47°36' W 122°22'0 0.2
2014-Oct-19 11:31N 47°36' W 122°22'1 1.0
2014-Oct-19 10:33N 47°35' W 122°21'0 0.1
2014-Oct-19 10:31N 47°35' W 122°21'1 0.8
2014-Oct-19 09:33N 47°35' W 122°21'0 0.1
2014-Oct-19 09:31N 47°35' W 122°21'0 0.2
2014-Oct-19 08:33N 47°35' W 122°21'0 0.1
2014-Oct-19 08:31N 47°35' W 122°21'0 0.0
2014-Oct-19 07:33N 47°35' W 122°21'0 0.0
2014-Oct-19 07:31N 47°35' W 122°21'0 0.0
2014-Oct-19 06:33N 47°35' W 122°21'0 0.0
2014-Oct-19 06:30N 47°35' W 122°21'0 0.0
2014-Oct-19 06:00N 47°35' W 122°21'0 0.0
2014-Oct-19 05:33N 47°35' W 122°21'0 0.0
2014-Oct-19 04:33N 47°35' W 122°21'0 0.0
2014-Oct-19 04:25N 47°35' W 122°21'0 0.0
2014-Oct-19 03:33N 47°35' W 122°21'0 0.1
2014-Oct-19 03:30N 47°35' W 122°21'0 0.0
2014-Oct-19 02:33N 47°35' W 122°21'0 0.0
2014-Oct-19 02:24N 47°35' W 122°21'0 0.0
2014-Oct-19 01:33N 47°35' W 122°21'0 0.0
2014-Oct-19 01:30N 47°35' W 122°21'0 0.0
2014-Oct-19 00:33N 47°35' W 122°21'0 0.0
2014-Oct-19 00:24N 47°35' W 122°21'0 0.0
2014-Oct-18 23:33N 47°35' W 122°21'0 0.0
2014-Oct-18 23:30N 47°35' W 122°21'1 1.0
2014-Oct-18 22:33N 47°36' W 122°21'0 0.9
2014-Oct-18 22:30N 47°36' W 122°21'0 0.5
2014-Oct-18 21:33N 47°35' W 122°21'0 0.0
2014-Oct-18 21:29N 47°35' W 122°21'0 0.0
2014-Oct-18 20:33N 47°35' W 122°21'0 0.1
2014-Oct-18 20:29N 47°35' W 122°21'0 0.0
2014-Oct-18 19:33N 47°35' W 122°21'0 0.0
2014-Oct-18 19:29N 47°35' W 122°21'0 0.0
2014-Oct-18 18:33N 47°35' W 122°21'0 0.1
2014-Oct-18 18:28N 47°35' W 122°21'0 0.0
2014-Oct-18 17:33N 47°35' W 122°21'0 0.1
2014-Oct-18 17:28N 47°35' W 122°21'0 0.4
2014-Oct-18 16:33N 47°36' W 122°21'0 1.8
2014-Oct-18 16:28N 47°36' W 122°21'1 0.9
2014-Oct-18 15:33N 47°35' W 122°21'0 0.5
2014-Oct-18 15:29N 47°35' W 122°21'1 0.6
2014-Oct-18 14:33N 47°35' W 122°21'0 0.0
2014-Oct-18 14:29N 47°35' W 122°21'0 0.0
2014-Oct-18 13:33N 47°35' W 122°21'0 0.0
2014-Oct-18 13:33N 47°35' W 122°21'0 0.0
2014-Oct-18 12:33N 47°35' W 122°21'0 0.0
2014-Oct-18 12:33N 47°35' W 122°21'0 0.0
2014-Oct-18 11:33N 47°35' W 122°21'0 0.0
2014-Oct-18 11:33N 47°35' W 122°21'0 0.0
2014-Oct-18 10:33N 47°35' W 122°21'0 0.0
2014-Oct-18 10:23N 47°35' W 122°21'0 0.0
2014-Oct-18 09:33N 47°35' W 122°21'0 0.0
2014-Oct-18 09:33N 47°35' W 122°21'0 0.0
2014-Oct-18 08:33N 47°35' W 122°21'0 0.0
2014-Oct-18 08:32N 47°35' W 122°21'0 0.0
2014-Oct-18 07:33N 47°35' W 122°21'0 0.3
2014-Oct-18 07:32N 47°35' W 122°21'0 0.3
2014-Oct-18 06:33N 47°35' W 122°21'0 2.7
2014-Oct-18 06:31N 47°35' W 122°21'1 2.2
2014-Oct-18 05:57N 47°36' W 122°22'1 1.6
2014-Oct-18 05:33N 47°36' W 122°21'0 0.4
2014-Oct-18 04:33N 47°35' W 122°21'0 0.0
2014-Oct-18 04:32N 47°35' W 122°21'0 0.0
2014-Oct-18 03:33N 47°35' W 122°21'0 0.0
2014-Oct-18 03:32N 47°35' W 122°21'0 0.0
2014-Oct-18 02:33N 47°35' W 122°21'0 0.3
2014-Oct-18 02:32N 47°35' W 122°21'0 0.0
2014-Oct-18 01:33N 47°35' W 122°21'0 0.0
2014-Oct-18 01:32N 47°35' W 122°21'0 0.0
2014-Oct-18 00:33N 47°35' W 122°21'0 0.0
2014-Oct-18 00:32N 47°35' W 122°21'0 0.0
2014-Oct-17 23:33N 47°35' W 122°21'0 0.0
2014-Oct-17 23:32N 47°35' W 122°21'0 0.0
2014-Oct-17 22:33N 47°35' W 122°21'0 0.0
2014-Oct-17 22:32N 47°35' W 122°21'0 0.0
2014-Oct-17 21:33N 47°35' W 122°21'0 0.2
2014-Oct-17 21:31N 47°35' W 122°21'0 0.0
2014-Oct-17 20:33N 47°35' W 122°21'0 0.0
2014-Oct-17 20:31N 47°35' W 122°21'0 0.0
2014-Oct-17 19:33N 47°35' W 122°21'0 0.1
2014-Oct-17 19:31N 47°35' W 122°21'0 0.0
2014-Oct-17 18:33N 47°35' W 122°21'0 0.1
2014-Oct-17 18:31N 47°35' W 122°21'5 5.6
2014-Oct-17 17:33N 47°31' W 122°25'0 8.2
2014-Oct-17 17:31N 47°30' W 122°25'8 8.7
2014-Oct-17 16:33N 47°22' W 122°21'1 8.7
2014-Oct-17 16:25N 47°22' W 122°23'5 6.1
2014-Oct-17 15:33N 47°16' W 122°24'1 0.5
2014-Oct-17 14:34N 47°16' W 122°24'0 0.3
2014-Oct-17 13:33N 47°16' W 122°23'1 1.3
2014-Oct-17 12:33N 47°17' W 122°25'1 1.5
2014-Oct-17 11:33N 47°16' W 122°23'0 0.2
2014-Oct-17 10:33N 47°16' W 122°23'3 3.2
2014-Oct-17 09:33N 47°18' W 122°27'1110.7
2014-Oct-17 08:33N 47°28' W 122°24'7 6.0
2014-Oct-17 07:20N 47°35' W 122°21'0 0.0
2014-Oct-17 07:02N 47°35' W 122°21'0 0.0
2014-Oct-17 06:33N 47°35' W 122°21'0 0.4
2014-Oct-17 06:32N 47°35' W 122°21'0 0.0
2014-Oct-17 05:32N 47°35' W 122°21'0 0.0
2014-Oct-17 04:33N 47°35' W 122°21'0 0.0
2014-Oct-17 04:29N 47°35' W 122°21'0 0.0
2014-Oct-17 03:33N 47°35' W 122°21'0 0.1
2014-Oct-17 03:29N 47°35' W 122°21'0 0.0
2014-Oct-17 02:33N 47°35' W 122°21'0 0.0
2014-Oct-17 02:29N 47°35' W 122°21'0 0.0
2014-Oct-17 01:33N 47°35' W 122°21'0 0.0
2014-Oct-17 01:29N 47°35' W 122°21'0 0.0
2014-Oct-17 00:33N 47°35' W 122°21'0 0.1
2014-Oct-17 00:29N 47°35' W 122°21'0 0.0
2014-Oct-16 23:33N 47°35' W 122°21'0 0.0
2014-Oct-16 23:29N 47°35' W 122°21'0 0.0
2014-Oct-16 22:33N 47°35' W 122°21'0 0.1
2014-Oct-16 22:28N 47°35' W 122°21'0 0.0
2014-Oct-16 21:33N 47°35' W 122°21'0 0.0
2014-Oct-16 21:33N 47°35' W 122°21'0 0.0
2014-Oct-16 20:33N 47°35' W 122°21'0 0.0
2014-Oct-16 20:33N 47°35' W 122°21'0 0.0
2014-Oct-16 19:33N 47°35' W 122°21'0 0.0
2014-Oct-16 19:33N 47°35' W 122°21'0 0.0
2014-Oct-16 18:33N 47°35' W 122°21'0 0.0
2014-Oct-16 18:33N 47°35' W 122°21'0 0.0
2014-Oct-16 17:33N 47°35' W 122°21'0 0.0
2014-Oct-16 17:33N 47°35' W 122°21'0 0.0
2014-Oct-16 16:33N 47°35' W 122°21'0 0.0
2014-Oct-16 16:33N 47°35' W 122°21'0 0.0
2014-Oct-16 15:33N 47°35' W 122°21'0 0.6
2014-Oct-16 15:33N 47°35' W 122°21'0 0.0
2014-Oct-16 14:33N 47°35' W 122°21'0 0.0
2014-Oct-16 14:33N 47°35' W 122°21'0 0.0
2014-Oct-16 13:33N 47°35' W 122°21'0 0.0
2014-Oct-16 13:33N 47°35' W 122°21'0 0.0
2014-Oct-16 12:33N 47°35' W 122°21'0 0.0
2014-Oct-16 12:33N 47°35' W 122°21'1 0.6
2014-Oct-16 11:33N 47°35' W 122°21'0 0.1
2014-Oct-16 11:28N 47°35' W 122°21'0 0.0
2014-Oct-16 10:33N 47°35' W 122°21'0 0.0
2014-Oct-16 10:13N 47°35' W 122°21'0 0.0
2014-Oct-16 09:33N 47°35' W 122°21'0 0.0
2014-Oct-16 09:32N 47°35' W 122°21'0 0.0
2014-Oct-16 08:32N 47°35' W 122°21'0 0.0
2014-Oct-16 08:32N 47°35' W 122°21'0 0.0
2014-Oct-16 07:33N 47°35' W 122°21'0 0.3
2014-Oct-16 07:32N 47°35' W 122°21'0 0.4
2014-Oct-16 06:33N 47°35' W 122°21'0 0.0
2014-Oct-16 06:32N 47°35' W 122°21'2 2.6
2014-Oct-16 05:42N 47°37' W 122°22'0 3.0
2014-Oct-16 05:33N 47°37' W 122°22'2 1.5
2014-Oct-16 04:33N 47°35' W 122°21'0 0.3
2014-Oct-16 04:32N 47°35' W 122°21'0 0.0
2014-Oct-16 03:33N 47°35' W 122°21'0 0.0
2014-Oct-16 03:32N 47°35' W 122°21'0 0.0
2014-Oct-16 02:33N 47°35' W 122°21'0 0.0
2014-Oct-16 02:32N 47°35' W 122°21'0 0.0
2014-Oct-16 01:33N 47°35' W 122°21'0 0.0
2014-Oct-16 01:31N 47°35' W 122°21'0 0.0
2014-Oct-16 00:33N 47°35' W 122°21'0 0.0
2014-Oct-16 00:26N 47°35' W 122°21'1 0.7
2014-Oct-15 23:33N 47°35' W 122°21'0 0.2
2014-Oct-15 23:31N 47°35' W 122°21'1 0.6
2014-Oct-15 22:33N 47°35' W 122°21'0 0.0
2014-Oct-15 22:31N 47°35' W 122°21'0 0.0
2014-Oct-15 21:33N 47°35' W 122°21'0 0.2
2014-Oct-15 21:31N 47°35' W 122°21'0 0.0
2014-Oct-15 20:33N 47°35' W 122°21'0 0.0
2014-Oct-15 20:31N 47°35' W 122°21'0 0.1
2014-Oct-15 19:33N 47°35' W 122°21'0 1.9
2014-Oct-15 19:31N 47°35' W 122°21'0 0.0
2014-Oct-15 18:33N 47°35' W 122°21'0 0.2
2014-Oct-15 18:31N 47°35' W 122°21'0 0.0
2014-Oct-15 17:33N 47°35' W 122°21'0 0.0
2014-Oct-15 17:31N 47°35' W 122°21'0 0.0
2014-Oct-15 16:33N 47°35' W 122°21'0 0.1
2014-Oct-15 16:26N 47°35' W 122°21'0 0.0
2014-Oct-15 15:33N 47°35' W 122°21'0 0.0
2014-Oct-15 15:30N 47°35' W 122°21'0 0.0
2014-Oct-15 14:33N 47°35' W 122°21'0 0.0
2014-Oct-15 14:25N 47°35' W 122°21'0 0.0
2014-Oct-15 13:33N 47°35' W 122°21'0 0.1
2014-Oct-15 13:30N 47°35' W 122°21'0 0.2
2014-Oct-15 12:33N 47°35' W 122°21'0 3.0
2014-Oct-15 12:30N 47°35' W 122°21'1 0.9
2014-Oct-15 11:33N 47°36' W 122°22'0 3.3
2014-Oct-15 11:30N 47°36' W 122°21'1 0.6
2014-Oct-15 10:33N 47°35' W 122°21'0 0.1
2014-Oct-15 10:29N 47°35' W 122°21'0 0.0
2014-Oct-15 09:33N 47°35' W 122°21'0 0.0
2014-Oct-15 09:32N 47°35' W 122°21'0 0.0
2014-Oct-15 08:33N 47°35' W 122°21'0 0.0
2014-Oct-15 07:59N 47°35' W 122°21'0 0.0
2014-Oct-15 07:33N 47°35' W 122°21'0 0.1
2014-Oct-15 07:29N 47°35' W 122°21'0 0.0
2014-Oct-15 06:34N 47°35' W 122°21'0 0.0
2014-Oct-15 06:33N 47°35' W 122°21'0 0.0
2014-Oct-15 05:59N 47°35' W 122°21'0 0.0
2014-Oct-15 05:33N 47°35' W 122°21'2 2.3
2014-Oct-15 04:33N 47°36' W 122°24'8 8.4
2014-Oct-15 03:33N 47°27' W 122°24'7 7.5
2014-Oct-15 02:33N 47°20' W 122°25'5 4.7
2014-Oct-15 01:33N 47°16' W 122°23'0 0.1
2014-Oct-15 00:33N 47°16' W 122°23'2 1.5
2014-Oct-14 23:33N 47°16' W 122°25'1 0.8
2014-Oct-14 22:33N 47°17' W 122°25'0 0.4
2014-Oct-14 21:33N 47°17' W 122°25'1 0.8
2014-Oct-14 20:33N 47°16' W 122°24'4 4.4
2014-Oct-14 19:33N 47°20' W 122°26'1110.6
2014-Oct-14 18:33N 47°31' W 122°24'411.4
2014-Oct-14 18:12N 47°35' W 122°25'3 4.6
2014-Oct-14 17:31N 47°35' W 122°21'0 0.0
2014-Oct-14 16:30N 47°35' W 122°21'0 0.0
2014-Oct-14 15:33N 47°35' W 122°21'0 0.0
2014-Oct-14 14:33N 47°35' W 122°21'0 0.0
2014-Oct-14 14:09N 47°35' W 122°21'0 0.0
2014-Oct-14 13:33N 47°35' W 122°21'0 0.0
2014-Oct-14 13:29N 47°35' W 122°21'0 0.0
2014-Oct-14 12:33N 47°35' W 122°21'0 0.0
2014-Oct-14 12:29N 47°35' W 122°21'0 0.0
2014-Oct-14 11:33N 47°35' W 122°21'0 0.0
2014-Oct-14 11:29N 47°35' W 122°21'0 0.0
2014-Oct-14 10:33N 47°35' W 122°21'0 0.0
2014-Oct-14 10:29N 47°35' W 122°21'0 0.0
2014-Oct-14 09:33N 47°35' W 122°21'0 0.0
2014-Oct-14 09:29N 47°35' W 122°21'0 0.0
2014-Oct-14 08:33N 47°35' W 122°21'0 0.0
2014-Oct-14 08:29N 47°35' W 122°21'0 0.0
2014-Oct-14 07:33N 47°35' W 122°21'0 0.0
2014-Oct-14 07:29N 47°35' W 122°21'0 0.0
2014-Oct-14 06:33N 47°35' W 122°21'0 0.0
2014-Oct-14 06:29N 47°35' W 122°21'0 0.0
2014-Oct-14 06:03N 47°35' W 122°21'0 0.0
2014-Oct-14 05:33N 47°35' W 122°21'0 0.0
2014-Oct-14 04:33N 47°35' W 122°21'0 0.0
2014-Oct-14 04:28N 47°35' W 122°21'0 0.0
2014-Oct-14 03:33N 47°35' W 122°21'0 0.0
2014-Oct-14 03:33N 47°35' W 122°21'0 0.0
2014-Oct-14 02:33N 47°35' W 122°21'0 0.0
2014-Oct-14 02:33N 47°35' W 122°21'0 0.0
2014-Oct-14 01:33N 47°35' W 122°21'0 0.0
2014-Oct-14 01:33N 47°35' W 122°21'0 0.0
2014-Oct-14 00:33N 47°35' W 122°21'0 0.0
2014-Oct-14 00:33N 47°35' W 122°21'0 0.0
2014-Oct-13 23:33N 47°35' W 122°21'0 0.0
2014-Oct-13 23:33N 47°35' W 122°21'0 0.0
2014-Oct-13 22:33N 47°35' W 122°21'0 0.0
2014-Oct-13 22:21N 47°35' W 122°21'0 0.0
2014-Oct-13 21:33N 47°35' W 122°21'0 0.0
2014-Oct-13 21:31N 47°35' W 122°21'0 0.0
2014-Oct-13 20:32N 47°35' W 122°21'0 0.0
2014-Oct-13 20:31N 47°35' W 122°21'0 0.0
2014-Oct-13 19:33N 47°35' W 122°21'0 0.0
2014-Oct-13 19:31N 47°35' W 122°21'0 0.0
2014-Oct-13 18:33N 47°35' W 122°21'0 0.0
2014-Oct-13 18:30N 47°35' W 122°21'0 0.0
2014-Oct-13 17:33N 47°35' W 122°21'0 0.0
2014-Oct-13 17:14N 47°35' W 122°21'0 0.0
2014-Oct-13 16:33N 47°35' W 122°21'0 0.0
2014-Oct-13 16:30N 47°35' W 122°21'0 0.0
2014-Oct-13 15:33N 47°35' W 122°21'0 0.0
2014-Oct-13 15:14N 47°35' W 122°21'0 0.0
2014-Oct-13 14:33N 47°35' W 122°21'0 0.1
2014-Oct-13 14:29N 47°35' W 122°21'0 0.0
2014-Oct-13 13:33N 47°35' W 122°21'0 0.1
2014-Oct-13 13:29N 47°35' W 122°21'0 0.0
2014-Oct-13 12:33N 47°35' W 122°21'0 0.0
2014-Oct-13 12:29N 47°35' W 122°21'0 0.0
2014-Oct-13 11:33N 47°35' W 122°21'0 0.0
2014-Oct-13 11:29N 47°35' W 122°21'0 0.0
2014-Oct-13 10:33N 47°35' W 122°21'0 0.0
2014-Oct-13 10:24N 47°35' W 122°21'0 0.0
2014-Oct-13 09:32N 47°35' W 122°21'0 0.0
2014-Oct-13 08:32N 47°35' W 122°21'0 0.0
2014-Oct-13 07:33N 47°35' W 122°21'0 0.0
2014-Oct-13 06:59N 47°35' W 122°21'0 0.0
2014-Oct-13 06:33N 47°35' W 122°21'0 0.0
2014-Oct-13 06:29N 47°35' W 122°21'0 0.0
2014-Oct-13 05:59N 47°35' W 122°21'0 0.0
2014-Oct-13 05:33N 47°35' W 122°21'0 0.0
2014-Oct-13 04:32N 47°35' W 122°21'0 0.1
2014-Oct-13 04:28N 47°35' W 122°21'0 0.0
2014-Oct-13 03:34N 47°35' W 122°21'0 0.0
2014-Oct-13 03:33N 47°35' W 122°21'0 0.0
2014-Oct-13 02:33N 47°35' W 122°21'0 0.0
2014-Oct-13 02:01N 47°35' W 122°21'0 0.0
2014-Oct-13 01:33N 47°35' W 122°21'0 0.0
2014-Oct-13 01:31N 47°35' W 122°21'0 0.0
2014-Oct-13 00:33N 47°35' W 122°21'0 0.0
2014-Oct-13 00:31N 47°35' W 122°21'0 0.0
2014-Oct-12 23:33N 47°35' W 122°21'0 0.0
2014-Oct-12 23:31N 47°35' W 122°21'0 0.0
2014-Oct-12 22:33N 47°35' W 122°21'0 0.1
2014-Oct-12 22:30N 47°35' W 122°21'0 0.0
2014-Oct-12 21:33N 47°35' W 122°21'0 0.0
2014-Oct-12 20:58N 47°35' W 122°21'0 0.0
2014-Oct-12 20:33N 47°35' W 122°21'0 0.0
2014-Oct-12 20:28N 47°35' W 122°21'0 0.0
2014-Oct-12 19:32N 47°35' W 122°21'0 0.0
2014-Oct-12 19:27N 47°35' W 122°21'0 0.0
2014-Oct-12 18:33N 47°35' W 122°21'0 0.0
2014-Oct-12 18:33N 47°35' W 122°21'0 0.0
2014-Oct-12 17:33N 47°35' W 122°21'0 0.0
2014-Oct-12 17:33N 47°35' W 122°21'0 0.0
2014-Oct-12 16:33N 47°35' W 122°21'0 0.0
2014-Oct-12 16:33N 47°35' W 122°21'0 0.0
2014-Oct-12 15:33N 47°35' W 122°21'0 0.0
2014-Oct-12 15:32N 47°35' W 122°21'0 0.2
2014-Oct-12 14:33N 47°36' W 122°21'0 0.7
2014-Oct-12 14:32N 47°36' W 122°21'0 0.2
2014-Oct-12 13:33N 47°35' W 122°21'0 0.0
2014-Oct-12 13:32N 47°35' W 122°21'0 0.0
2014-Oct-12 12:33N 47°35' W 122°21'0 0.3
2014-Oct-12 12:32N 47°35' W 122°21'0 0.0
2014-Oct-12 11:33N 47°35' W 122°21'0 0.0
2014-Oct-12 11:32N 47°35' W 122°21'0 0.0
2014-Oct-12 10:32N 47°35' W 122°21'0 0.0
2014-Oct-12 09:31N 47°35' W 122°21'0 0.0
2014-Oct-12 09:25N 47°35' W 122°21'0 0.0
2014-Oct-12 08:33N 47°35' W 122°21'0 0.0
2014-Oct-12 08:30N 47°35' W 122°21'0 0.0
2014-Oct-12 07:33N 47°35' W 122°21'0 0.0
2014-Oct-12 07:29N 47°35' W 122°21'0 0.0
2014-Oct-12 06:33N 47°35' W 122°21'0 0.0
2014-Oct-12 06:29N 47°35' W 122°21'0 0.0
2014-Oct-12 05:59N 47°35' W 122°21'0 0.0
2014-Oct-12 05:33N 47°35' W 122°21'0 0.0
2014-Oct-12 04:33N 47°35' W 122°21'0 0.0
2014-Oct-12 04:29N 47°35' W 122°21'0 0.0
2014-Oct-12 03:33N 47°35' W 122°21'0 0.0
2014-Oct-12 03:29N 47°35' W 122°21'0 0.0
2014-Oct-12 02:33N 47°35' W 122°21'0 0.1
2014-Oct-12 02:29N 47°35' W 122°21'0 0.0
2014-Oct-12 01:33N 47°35' W 122°21'0 0.5
2014-Oct-12 00:33N 47°35' W 122°21'0 0.6
2014-Oct-11 23:45N 47°35' W 122°21'0 0.0
2014-Oct-11 23:33N 47°35' W 122°21'0 0.0
2014-Oct-11 23:30N 47°35' W 122°21'0 0.0
2014-Oct-11 22:33N 47°35' W 122°21'0 0.1
2014-Oct-11 22:30N 47°35' W 122°21'0 0.0
2014-Oct-11 21:33N 47°35' W 122°21'  

Dump ship's entire track history